Time;durP1;ratioP1;P1;durP2;ratioP2;P2;SDS_P1;SDS_P2;PMS_P1;PMS_P2;Temp;Humidity;BMP_temperature;BMP_pressure;BME280_temperature;BME280_humidity;BME280_pressure;Samples;Min_cycle;Max_cycle;Signal;HPM_P1;HPM_P2
2022/01/11 00:01:44;;;;;;;8.63;6.40;;;3.50;95.10;;;;;;962510;146;27421;-80
2022/01/11 00:04:11;;;;;;;8.07;5.90;;;3.50;95.20;;;;;;952121;146;27227;-80
2022/01/11 00:06:44;;;;;;;10.20;6.47;;;3.50;95.20;;;;;;955230;146;27359;-80
2022/01/11 00:09:20;;;;;;;8.90;5.80;;;3.40;95.30;;;;;;959800;146;27858;-80
2022/01/11 00:11:33;;;;;;;7.17;5.37;;;3.50;95.50;;;;;;951588;146;27701;-80
2022/01/11 00:14:00;;;;;;;7.27;5.23;;;3.50;95.60;;;;;;956567;148;27407;-80
2022/01/11 00:16:26;;;;;;;7.80;5.37;;;3.50;95.70;;;;;;954748;146;27399;-80
2022/01/11 00:18:58;;;;;;;7.73;5.73;;;3.50;95.90;;;;;;950255;146;27322;-79
2022/01/11 00:21:22;;;;;;;8.80;5.90;;;3.50;96.10;;;;;;949762;146;27308;-80
2022/01/11 00:26:33;;;;;;;6.43;5.43;;;3.60;96.50;;;;;;959816;146;27418;-79
2022/01/11 00:29:00;;;;;;;5.67;5.10;;;3.60;96.50;;;;;;956828;146;27298;-81
2022/01/11 00:31:26;;;;;;;6.57;5.87;;;3.70;96.60;;;;;;975487;146;27358;-74
2022/01/11 00:33:53;;;;;;;6.33;5.47;;;3.70;96.60;;;;;;963606;145;27722;-80
2022/01/11 00:36:19;;;;;;;5.93;5.33;;;3.80;96.50;;;;;;972463;146;27234;-79
2022/01/11 00:38:46;;;;;;;7.43;5.30;;;3.80;96.40;;;;;;952032;148;28080;-80
2022/01/11 00:41:13;;;;;;;7.10;5.63;;;3.90;96.40;;;;;;972381;146;27318;-79
2022/01/11 00:43:39;;;;;;;6.40;4.83;;;3.90;96.40;;;;;;959797;146;27424;-80
2022/01/11 00:46:06;;;;;;;7.43;5.20;;;3.90;96.30;;;;;;964939;146;27317;-80
2022/01/11 00:48:32;;;;;;;5.40;4.87;;;4.00;96.30;;;;;;957006;148;27271;-80
2022/01/11 00:51:01;;;;;;;9.70;6.40;;;4.10;96.30;;;;;;955878;148;27316;-78
2022/01/11 00:53:28;;;;;;;7.17;6.00;;;4.10;96.20;;;;;;952500;146;27359;-79
2022/01/11 00:55:54;;;;;;;8.77;5.60;;;4.10;96.10;;;;;;962785;146;27324;-80
2022/01/11 00:58:21;;;;;;;9.83;6.57;;;4.10;96.00;;;;;;964410;146;27308;-80
2022/01/11 01:00:48;;;;;;;10.00;6.00;;;4.10;96.00;;;;;;957259;148;27428;-80
2022/01/11 01:03:14;;;;;;;9.47;6.53;;;4.20;96.00;;;;;;962948;146;27411;-79
2022/01/11 01:05:41;;;;;;;8.07;5.97;;;4.20;96.00;;;;;;961799;146;27366;-75
2022/01/11 01:08:07;;;;;;;7.00;6.10;;;4.20;96.00;;;;;;975349;146;27284;-78
2022/01/11 01:10:37;;;;;;;9.40;6.00;;;4.30;96.00;;;;;;956931;146;27347;-79
2022/01/11 01:13:09;;;;;;;8.93;6.03;;;4.30;96.00;;;;;;957348;146;27306;-78
2022/01/11 01:15:36;;;;;;;7.97;6.30;;;4.40;95.90;;;;;;963887;148;27402;-82
2022/01/11 01:18:05;;;;;;;8.40;6.03;;;4.40;95.90;;;;;;939184;149;27311;-82
2022/01/11 01:20:32;;;;;;;6.87;5.97;;;4.40;95.80;;;;;;958537;148;27305;-81
2022/01/11 01:22:59;;;;;;;7.83;5.90;;;4.40;95.70;;;;;;950171;147;27429;-82
2022/01/11 01:25:25;;;;;;;7.03;6.33;;;4.50;95.70;;;;;;951804;147;27437;-82
2022/01/11 01:27:52;;;;;;;9.73;6.03;;;4.50;95.60;;;;;;963175;147;27823;-80
2022/01/11 01:30:20;;;;;;;6.23;5.27;;;4.50;95.60;;;;;;961512;148;27294;-81
2022/01/11 01:32:45;;;;;;;8.10;6.07;;;4.50;95.50;;;;;;951490;149;28071;-81
2022/01/11 01:35:12;;;;;;;7.20;5.80;;;4.50;95.50;;;;;;944519;149;27403;-80
2022/01/11 01:37:38;;;;;;;8.00;6.27;;;4.50;95.60;;;;;;942669;149;27307;-79
2022/01/11 01:40:05;;;;;;;9.20;6.17;;;4.50;95.60;;;;;;953532;149;27337;-82
2022/01/11 01:42:32;;;;;;;9.10;6.43;;;4.50;95.60;;;;;;952787;149;29265;-78
2022/01/11 01:45:01;;;;;;;8.57;5.83;;;4.50;95.60;;;;;;952616;149;27337;-79
2022/01/11 01:47:25;;;;;;;6.80;5.30;;;4.60;95.70;;;;;;951454;147;27354;-81
2022/01/11 01:49:51;;;;;;;6.37;5.73;;;4.60;95.70;;;;;;948334;148;27297;-82
2022/01/11 01:52:18;;;;;;;7.90;6.00;;;4.60;95.70;;;;;;950621;149;27238;-82
2022/01/11 01:54:44;;;;;;;6.60;5.90;;;4.60;95.70;;;;;;950932;149;27402;-78
2022/01/11 01:57:11;;;;;;;7.60;6.10;;;4.60;95.60;;;;;;949650;149;27399;-81
2022/01/11 01:59:38;;;;;;;8.67;6.23;;;4.60;95.60;;;;;;948723;149;27301;-82
2022/01/11 02:02:07;;;;;;;8.80;6.97;;;4.70;95.50;;;;;;947324;149;27297;-82
2022/01/11 02:04:31;;;;;;;7.27;6.57;;;4.70;95.40;;;;;;944824;147;27366;-80
2022/01/11 02:06:57;;;;;;;6.53;5.90;;;4.70;95.30;;;;;;956134;149;27340;-81
2022/01/11 02:09:24;;;;;;;6.43;5.33;;;4.70;95.30;;;;;;951295;149;27716;-82
2022/01/11 02:11:50;;;;;;;6.77;5.53;;;4.60;95.20;;;;;;952184;149;27343;-82
2022/01/11 02:14:17;;;;;;;6.73;5.33;;;4.60;95.20;;;;;;949856;148;27317;-79
2022/01/11 02:16:44;;;;;;;6.70;6.00;;;4.60;95.20;;;;;;949794;149;28026;-81
2022/01/11 02:19:10;;;;;;;5.83;5.23;;;4.60;95.30;;;;;;953759;148;27272;-82
2022/01/11 02:21:38;;;;;;;9.63;6.43;;;4.60;95.30;;;;;;949921;149;27297;-81
2022/01/11 02:24:03;;;;;;;6.13;5.50;;;4.60;95.30;;;;;;948636;148;27458;-81
2022/01/11 02:26:30;;;;;;;9.27;7.00;;;4.70;95.40;;;;;;951329;149;27699;-81
2022/01/11 02:28:57;;;;;;;8.57;6.77;;;4.70;95.40;;;;;;943591;149;27304;-81
2022/01/11 02:31:23;;;;;;;10.10;6.43;;;4.70;95.40;;;;;;949330;150;27317;-82
2022/01/11 02:33:50;;;;;;;9.70;6.33;;;4.70;95.50;;;;;;948511;149;27306;-81
2022/01/11 02:36:22;;;;;;;10.07;6.73;;;4.70;95.50;;;;;;951790;149;27421;-81
2022/01/11 02:38:49;;;;;;;8.27;6.03;;;4.70;95.60;;;;;;944529;150;27314;-82
2022/01/11 02:41:15;;;;;;;10.07;6.87;;;4.70;95.60;;;;;;954682;147;27404;-81
2022/01/11 02:43:42;;;;;;;8.20;6.53;;;4.80;95.70;;;;;;951175;147;27348;-80
2022/01/11 02:46:09;;;;;;;9.50;6.40;;;4.80;95.60;;;;;;959037;148;27827;-79
2022/01/11 02:48:35;;;;;;;10.23;6.60;;;4.80;95.60;;;;;;948169;149;27302;-82
2022/01/11 02:51:02;;;;;;;6.90;6.13;;;4.90;95.70;;;;;;951311;147;27251;-82
2022/01/11 02:53:28;;;;;;;7.43;6.20;;;4.90;95.70;;;;;;954275;148;27274;-80
2022/01/11 02:55:55;;;;;;;9.47;7.07;;;4.90;95.70;;;;;;943490;150;27327;-82
2022/01/11 02:58:22;;;;;;;8.20;6.93;;;4.90;95.70;;;;;;955564;147;27390;-82
2022/01/11 03:00:48;;;;;;;9.03;6.83;;;5.00;95.70;;;;;;951969;149;27402;-82
2022/01/11 03:03:15;;;;;;;10.63;6.53;;;5.00;95.70;;;;;;951637;148;27397;-80
2022/01/11 03:05:44;;;;;;;11.20;7.27;;;5.00;95.60;;;;;;948229;148;27318;-81
2022/01/11 03:08:11;;;;;;;9.43;6.97;;;5.00;95.60;;;;;;959260;147;27409;-81
2022/01/11 03:10:38;;;;;;;9.47;7.67;;;5.00;95.60;;;;;;957199;147;27311;-81
2022/01/11 03:13:04;;;;;;;11.13;7.93;;;5.10;95.60;;;;;;948630;149;27866;-81
2022/01/11 03:15:31;;;;;;;12.87;7.57;;;5.10;95.50;;;;;;949040;149;27380;-80
2022/01/11 03:17:57;;;;;;;11.50;7.33;;;5.10;95.50;;;;;;940855;148;27729;-82
2022/01/11 03:20:27;;;;;;;11.33;7.87;;;5.10;95.50;;;;;;932591;149;27392;-81
2022/01/11 03:22:53;;;;;;;10.90;7.50;;;5.10;95.60;;;;;;949470;149;27334;-82
2022/01/11 03:25:20;;;;;;;12.63;8.63;;;5.10;95.60;;;;;;946149;149;27314;-80
2022/01/11 03:27:46;;;;;;;11.10;8.13;;;5.20;95.60;;;;;;952254;149;27255;-82
2022/01/11 03:30:13;;;;;;;12.03;8.27;;;5.20;95.60;;;;;;939671;148;27391;-82
2022/01/11 03:32:40;;;;;;;11.87;8.90;;;5.20;95.60;;;;;;945805;149;27333;-81
2022/01/11 03:35:06;;;;;;;10.97;7.63;;;5.20;95.60;;;;;;956435;149;27385;-74
2022/01/11 03:37:33;;;;;;;10.40;8.57;;;5.20;95.60;;;;;;959343;149;27377;-75
2022/01/11 03:39:59;;;;;;;9.87;7.80;;;5.20;95.50;;;;;;952195;149;27253;-75
2022/01/11 03:42:26;;;;;;;12.17;8.57;;;5.20;95.60;;;;;;951401;149;27715;-75
2022/01/11 03:44:54;;;;;;;10.43;7.33;;;5.30;95.60;;;;;;948541;149;27403;-75
2022/01/11 03:47:19;;;;;;;10.03;7.27;;;5.30;95.60;;;;;;940022;151;27449;-75
2022/01/11 03:49:46;;;;;;;12.17;7.97;;;5.30;95.50;;;;;;949063;148;27394;-75
2022/01/11 03:52:12;;;;;;;11.57;8.60;;;5.30;95.50;;;;;;956744;146;27431;-75
2022/01/11 03:57:24;;;;;;;11.97;8.50;;;5.30;95.50;;;;;;941612;151;27320;-74
2022/01/11 03:59:50;;;;;;;9.40;7.80;;;5.30;95.50;;;;;;957420;148;27429;-74
2022/01/11 04:02:17;;;;;;;14.50;8.97;;;5.30;95.50;;;;;;958714;148;27388;-74
2022/01/11 04:04:44;;;;;;;12.50;8.67;;;5.30;95.60;;;;;;961523;148;27344;-74
2022/01/11 04:07:10;;;;;;;12.27;8.90;;;5.30;95.30;;;;;;953421;149;27298;-74
2022/01/11 04:09:37;;;;;;;14.47;9.47;;;5.40;95.70;;;;;;953481;149;27329;-74
2022/01/11 04:12:03;;;;;;;15.37;9.93;;;5.40;95.70;;;;;;953484;149;27369;-74
2022/01/11 04:14:30;;;;;;;13.40;10.07;;;5.40;95.60;;;;;;955514;149;27429;-74
2022/01/11 04:16:56;;;;;;;17.90;11.27;;;5.40;95.60;;;;;;951483;149;27257;-74
2022/01/11 04:19:23;;;;;;;16.80;10.10;;;5.40;95.60;;;;;;955333;149;27655;-74
2022/01/11 04:21:50;;;;;;;14.87;10.63;;;5.40;95.80;;;;;;952690;149;27332;-74
2022/01/11 04:24:16;;;;;;;17.23;11.33;;;5.40;95.80;;;;;;948660;149;27645;-74
2022/01/11 04:26:43;;;;;;;16.97;10.67;;;5.50;95.90;;;;;;953856;147;27750;-74
2022/01/11 04:29:09;;;;;;;18.17;11.17;;;5.50;95.90;;;;;;943256;150;27441;-74
2022/01/11 04:31:36;;;;;;;17.10;10.83;;;5.50;95.90;;;;;;958041;148;27386;-74
2022/01/11 04:34:03;;;;;;;18.30;10.57;;;5.50;95.90;;;;;;939324;150;27453;-74
2022/01/11 04:36:30;;;;;;;19.87;11.17;;;5.50;95.90;;;;;;945624;148;27347;-74
2022/01/11 04:38:56;;;;;;;17.40;11.27;;;5.50;95.90;;;;;;955662;145;27317;-74
2022/01/11 04:41:22;;;;;;;14.80;10.07;;;5.60;95.90;;;;;;952077;147;27407;-74
2022/01/11 04:43:49;;;;;;;14.93;9.90;;;5.60;95.80;;;;;;948805;148;27342;-74
2022/01/11 04:46:18;;;;;;;12.07;9.10;;;5.60;95.80;;;;;;944392;148;27362;-74
2022/01/11 04:48:42;;;;;;;17.37;10.50;;;5.60;95.90;;;;;;944245;148;27422;-74
2022/01/11 04:51:09;;;;;;;15.73;10.53;;;5.60;96.00;;;;;;952492;149;27386;-74
2022/01/11 04:53:35;;;;;;;17.27;10.07;;;5.60;96.00;;;;;;958230;147;27318;-74
2022/01/11 04:56:02;;;;;;;13.33;9.53;;;5.60;96.10;;;;;;945767;147;27326;-74
2022/01/11 04:58:32;;;;;;;12.53;9.57;;;5.60;96.10;;;;;;949081;147;27350;-74
2022/01/11 05:01:01;;;;;;;17.17;10.13;;;5.60;96.10;;;;;;956900;147;27386;-74
2022/01/11 05:03:27;;;;;;;16.50;10.33;;;5.70;96.10;;;;;;962428;147;27471;-74
2022/01/11 05:05:54;;;;;;;16.07;10.63;;;5.70;96.10;;;;;;957256;147;27327;-74
2022/01/11 05:08:21;;;;;;;13.20;9.37;;;5.70;96.10;;;;;;955225;147;27344;-74
2022/01/11 05:10:47;;;;;;;13.00;9.57;;;5.70;96.10;;;;;;963557;147;27419;-74
2022/01/11 05:13:14;;;;;;;14.07;9.97;;;5.70;96.10;;;;;;950561;147;27252;-74
2022/01/11 05:15:40;;;;;;;16.13;10.20;;;5.70;96.00;;;;;;946561;147;27322;-74
2022/01/11 05:18:07;;;;;;;14.63;9.40;;;5.70;96.00;;;;;;950535;149;27928;-74
2022/01/11 05:20:34;;;;;;;12.23;9.40;;;5.80;96.10;;;;;;960649;147;27421;-74
2022/01/11 05:23:00;;;;;;;14.30;9.50;;;5.80;96.00;;;;;;952525;147;27341;-74
2022/01/11 05:25:27;;;;;;;15.07;9.87;;;5.80;96.00;;;;;;959053;147;27317;-74
2022/01/11 05:27:54;;;;;;;12.20;8.93;;;5.80;96.30;;;;;;952460;147;27308;-74
2022/01/11 05:30:20;;;;;;;15.00;9.03;;;5.80;95.90;;;;;;950972;149;27357;-74
2022/01/11 05:32:48;;;;;;;12.60;9.33;;;5.80;95.80;;;;;;951216;149;27372;-74
2022/01/11 05:35:13;;;;;;;10.60;9.13;;;5.80;95.80;;;;;;953629;147;27389;-74
2022/01/11 05:37:40;;;;;;;10.80;8.20;;;5.80;95.70;;;;;;966280;147;27382;-74
2022/01/11 05:40:07;;;;;;;12.00;9.37;;;5.80;95.60;;;;;;949024;147;27337;-74
2022/01/11 05:42:33;;;;;;;12.07;8.67;;;5.80;95.50;;;;;;949412;149;27342;-74
2022/01/11 05:44:59;;;;;;;10.80;9.10;;;5.80;95.50;;;;;;960847;147;27382;-74
2022/01/11 05:47:26;;;;;;;11.43;8.10;;;5.80;95.50;;;;;;949518;147;27390;-74
2022/01/11 05:49:53;;;;;;;9.50;8.13;;;5.80;95.40;;;;;;952130;149;27340;-74
2022/01/11 05:52:19;;;;;;;12.43;8.83;;;5.80;95.40;;;;;;956227;147;27307;-74
2022/01/11 05:54:46;;;;;;;11.27;8.50;;;5.80;95.40;;;;;;953611;147;28696;-74
2022/01/11 05:57:12;;;;;;;9.90;8.33;;;5.80;95.30;;;;;;964295;147;27301;-74
2022/01/11 05:59:39;;;;;;;10.10;8.27;;;5.80;95.30;;;;;;958297;147;27358;-74
2022/01/11 06:02:06;;;;;;;10.00;8.13;;;5.70;95.30;;;;;;963407;147;27426;-74
2022/01/11 06:04:35;;;;;;;11.00;7.97;;;5.70;95.30;;;;;;954265;147;27429;-74
2022/01/11 06:07:01;;;;;;;11.63;7.90;;;5.70;95.30;;;;;;958737;147;27421;-74
2022/01/11 06:09:28;;;;;;;11.70;8.20;;;5.70;95.30;;;;;;951625;146;27304;-74
2022/01/11 06:11:54;;;;;;;9.40;7.73;;;5.70;95.30;;;;;;949312;147;27338;-74
2022/01/11 06:14:21;;;;;;;9.43;7.13;;;5.70;95.30;;;;;;950097;147;27348;-74
2022/01/11 06:16:47;;;;;;;9.70;6.97;;;5.70;95.30;;;;;;946734;149;27334;-74
2022/01/11 06:19:14;;;;;;;8.80;7.80;;;5.70;95.40;;;;;;951543;147;27371;-74
2022/01/11 06:21:41;;;;;;;8.43;6.83;;;5.70;95.40;;;;;;957222;147;27328;-74
2022/01/11 06:24:07;;;;;;;7.47;6.67;;;5.70;95.50;;;;;;943145;147;27382;-74
2022/01/11 06:26:34;;;;;;;7.70;6.93;;;5.70;95.50;;;;;;947837;147;27301;-74
2022/01/11 06:29:02;;;;;;;8.67;7.17;;;5.70;95.50;;;;;;954154;147;27379;-74
2022/01/11 06:31:27;;;;;;;7.93;7.07;;;5.60;95.50;;;;;;952767;147;27333;-74
2022/01/11 06:33:54;;;;;;;6.93;6.30;;;5.70;95.40;;;;;;949209;147;27393;-74
2022/01/11 06:36:20;;;;;;;7.60;6.50;;;5.70;95.50;;;;;;946683;150;27407;-74
2022/01/11 06:38:47;;;;;;;7.03;6.33;;;5.70;95.50;;;;;;949223;147;27356;-74
2022/01/11 06:41:13;;;;;;;8.40;7.07;;;5.70;95.50;;;;;;953235;147;27327;-74
2022/01/11 06:43:40;;;;;;;6.97;6.27;;;5.70;95.50;;;;;;944443;149;27350;-74
2022/01/11 06:46:06;;;;;;;7.93;6.80;;;5.70;95.50;;;;;;944791;147;27411;-74
2022/01/11 06:48:33;;;;;;;8.27;6.87;;;5.70;95.40;;;;;;948742;147;27349;-74
2022/01/11 06:51:00;;;;;;;8.63;6.70;;;5.70;95.40;;;;;;949566;150;27440;-74
2022/01/11 06:53:28;;;;;;;9.20;7.67;;;5.70;95.40;;;;;;944252;148;27313;-74
2022/01/11 06:55:54;;;;;;;10.00;8.03;;;5.70;95.30;;;;;;957726;145;27404;-74
2022/01/11 06:58:20;;;;;;;8.03;6.70;;;5.70;95.30;;;;;;961731;144;27198;-74
2022/01/11 07:00:46;;;;;;;8.03;7.23;;;5.70;95.30;;;;;;955759;145;27426;-74
2022/01/11 07:03:15;;;;;;;7.03;6.23;;;5.70;95.30;;;;;;950852;145;27317;-75
2022/01/11 07:05:42;;;;;;;10.37;7.17;;;5.70;95.20;;;;;;961880;144;27807;-74
2022/01/11 07:08:09;;;;;;;10.80;7.77;;;5.70;95.20;;;;;;937775;148;27297;-74
2022/01/11 07:10:35;;;;;;;9.93;6.87;;;5.70;95.20;;;;;;956352;147;27321;-75
2022/01/11 07:13:02;;;;;;;9.43;7.40;;;5.70;95.20;;;;;;955626;147;27277;-73
2022/01/11 07:15:28;;;;;;;8.13;7.03;;;5.70;95.20;;;;;;966369;147;27295;-73
2022/01/11 07:17:55;;;;;;;7.97;6.60;;;5.60;95.20;;;;;;954122;146;27279;-73
2022/01/11 07:20:22;;;;;;;8.67;6.73;;;5.60;95.20;;;;;;956183;147;27357;-73
2022/01/11 07:22:48;;;;;;;9.57;7.10;;;5.60;95.20;;;;;;945117;147;27318;-73
2022/01/11 07:25:15;;;;;;;7.37;6.67;;;5.60;95.30;;;;;;967926;145;27286;-73
2022/01/11 07:27:41;;;;;;;6.80;5.87;;;5.60;95.30;;;;;;952135;146;27412;-73
2022/01/11 07:30:11;;;;;;;8.10;6.33;;;5.60;95.30;;;;;;947344;146;27423;-73
2022/01/11 07:32:37;;;;;;;7.37;6.60;;;5.60;95.20;;;;;;952393;146;27403;-74
2022/01/11 07:35:07;;;;;;;7.83;6.33;;;5.60;95.20;;;;;;960710;146;27746;-73
2022/01/11 07:37:34;;;;;;;7.77;7.00;;;5.60;95.30;;;;;;954121;148;27389;-73
2022/01/11 07:40:00;;;;;;;8.57;7.63;;;5.60;95.30;;;;;;956201;146;27732;-74
2022/01/11 07:42:27;;;;;;;8.13;7.33;;;5.70;95.50;;;;;;953369;146;27861;-73
2022/01/11 07:44:54;;;;;;;8.13;7.33;;;5.70;95.50;;;;;;952799;146;27346;-74
2022/01/11 07:47:20;;;;;;;7.13;6.43;;;5.70;95.50;;;;;;963546;146;27423;-73
2022/01/11 07:49:49;;;;;;;7.93;7.13;;;5.70;95.60;;;;;;954004;146;27232;-73
2022/01/11 07:52:13;;;;;;;7.83;7.03;;;5.70;95.60;;;;;;960587;146;27293;-73
2022/01/11 07:54:42;;;;;;;10.30;7.87;;;5.80;95.70;;;;;;961218;146;27341;-73
2022/01/11 07:57:09;;;;;;;9.53;7.93;;;5.80;95.70;;;;;;954908;146;27275;-73
2022/01/11 07:59:35;;;;;;;8.17;6.93;;;5.80;95.70;;;;;;945692;148;27333;-73
2022/01/11 08:02:03;;;;;;;9.17;7.97;;;5.80;95.80;;;;;;949208;147;27326;-73
2022/01/11 08:04:30;;;;;;;8.83;7.60;;;5.90;95.80;;;;;;966560;147;28192;-73
2022/01/11 08:06:55;;;;;;;9.93;7.90;;;5.90;95.80;;;;;;953666;147;27270;-73
2022/01/11 08:09:22;;;;;;;12.60;8.13;;;5.90;95.80;;;;;;951333;147;27265;-73
2022/01/11 08:11:50;;;;;;;11.30;8.43;;;6.00;95.80;;;;;;945482;149;27318;-74
2022/01/11 08:14:15;;;;;;;9.53;8.00;;;6.00;95.80;;;;;;958055;149;27385;-73
2022/01/11 08:16:42;;;;;;;10.33;8.70;;;6.10;95.80;;;;;;952560;149;27414;-73
2022/01/11 08:19:08;;;;;;;8.53;7.13;;;6.10;95.70;;;;;;957873;149;27320;-73
2022/01/11 08:21:35;;;;;;;8.73;7.83;;;6.10;95.70;;;;;;948784;147;27815;-73
2022/01/11 08:24:01;;;;;;;8.23;7.03;;;6.10;95.80;;;;;;949591;149;27313;-73
2022/01/11 08:26:28;;;;;;;8.20;7.30;;;6.20;95.80;;;;;;959140;147;27345;-73
2022/01/11 08:28:54;;;;;;;9.10;7.80;;;6.20;95.80;;;;;;954826;147;27306;-74
2022/01/11 08:31:21;;;;;;;9.03;7.10;;;6.20;95.90;;;;;;951178;147;27442;-73
2022/01/11 08:33:48;;;;;;;9.60;7.27;;;6.30;95.90;;;;;;947196;149;27946;-73
2022/01/11 08:36:14;;;;;;;9.07;7.23;;;6.30;96.40;;;;;;943836;149;27332;-73
2022/01/11 08:38:41;;;;;;;12.20;7.53;;;6.30;96.00;;;;;;954217;147;27313;-74
2022/01/11 08:41:10;;;;;;;10.73;7.87;;;6.40;96.00;;;;;;961212;148;27321;-73
2022/01/11 08:43:37;;;;;;;8.70;7.10;;;6.40;96.00;;;;;;951065;149;27364;-73
2022/01/11 08:46:03;;;;;;;8.87;7.57;;;6.50;95.90;;;;;;952659;147;27907;-73
2022/01/11 08:48:30;;;;;;;9.40;7.70;;;6.50;95.90;;;;;;949002;147;27330;-73
2022/01/11 08:50:56;;;;;;;10.10;7.47;;;6.60;95.90;;;;;;950346;149;27413;-73
2022/01/11 08:53:23;;;;;;;8.23;7.00;;;6.60;95.80;;;;;;946184;150;27323;-73
2022/01/11 08:55:49;;;;;;;9.90;8.67;;;6.70;95.70;;;;;;946203;149;27338;-74
2022/01/11 08:58:16;;;;;;;8.77;7.77;;;6.70;95.70;;;;;;941619;150;27405;-73
2022/01/11 09:00:43;;;;;;;9.73;7.30;;;6.70;95.50;;;;;;940665;150;27312;-73
2022/01/11 09:03:09;;;;;;;10.23;8.57;;;6.80;95.60;;;;;;947268;150;27427;-73
2022/01/11 09:05:36;;;;;;;10.40;8.73;;;6.80;95.60;;;;;;943318;150;27332;-73
2022/01/11 09:08:02;;;;;;;10.23;8.70;;;6.80;95.60;;;;;;953368;149;27316;-75
2022/01/11 09:10:29;;;;;;;10.30;9.00;;;6.90;95.70;;;;;;934814;152;27278;-75
2022/01/11 09:12:56;;;;;;;11.03;8.27;;;7.00;95.70;;;;;;933000;150;27297;-75
2022/01/11 09:15:25;;;;;;;11.43;8.27;;;7.00;95.70;;;;;;961482;148;27436;-75
2022/01/11 09:17:51;;;;;;;9.30;7.67;;;7.10;95.70;;;;;;942761;149;27308;-75
2022/01/11 09:20:18;;;;;;;8.77;7.47;;;7.10;95.70;;;;;;945304;149;27415;-75
2022/01/11 09:22:45;;;;;;;8.97;7.70;;;7.20;95.70;;;;;;949534;149;27361;-75
2022/01/11 09:25:11;;;;;;;7.23;6.53;;;7.30;95.60;;;;;;951947;149;27338;-75
2022/01/11 09:27:38;;;;;;;8.50;7.60;;;7.30;95.40;;;;;;955065;149;27774;-75
2022/01/11 09:30:06;;;;;;;7.87;7.07;;;7.40;95.40;;;;;;962033;149;27602;-75
2022/01/11 09:32:33;;;;;;;10.27;7.73;;;7.40;95.30;;;;;;960605;149;27403;-75
2022/01/11 09:34:58;;;;;;;9.30;7.73;;;7.50;95.30;;;;;;951584;149;27323;-75
2022/01/11 09:37:24;;;;;;;7.67;6.97;;;7.50;95.50;;;;;;957321;146;27384;-75
2022/01/11 09:39:51;;;;;;;8.90;8.00;;;7.60;95.10;;;;;;952114;146;27898;-75
2022/01/11 09:42:17;;;;;;;8.73;7.87;;;7.60;95.10;;;;;;960353;146;27388;-75
2022/01/11 09:44:44;;;;;;;9.30;8.30;;;7.70;95.00;;;;;;966259;145;27753;-75
2022/01/11 09:47:12;;;;;;;11.30;9.23;;;7.70;94.90;;;;;;949608;146;27387;-75
2022/01/11 09:49:37;;;;;;;9.67;8.53;;;7.80;94.80;;;;;;959191;146;27283;-75
2022/01/11 09:52:07;;;;;;;8.30;7.50;;;7.80;94.70;;;;;;960234;146;27265;-74
2022/01/11 09:54:30;;;;;;;10.20;8.37;;;7.90;94.80;;;;;;958623;146;27330;-74
2022/01/11 09:56:57;;;;;;;10.00;8.87;;;7.90;94.80;;;;;;955003;146;27257;-74
2022/01/11 09:59:23;;;;;;;10.27;8.50;;;8.00;94.80;;;;;;962875;146;27748;-74
2022/01/11 10:01:50;;;;;;;11.50;9.70;;;8.00;95.20;;;;;;958275;146;27312;-74
2022/01/11 10:04:18;;;;;;;10.90;9.37;;;8.10;94.80;;;;;;955539;146;27271;-74
2022/01/11 10:06:43;;;;;;;10.20;9.10;;;8.20;94.80;;;;;;956754;148;27237;-74
2022/01/11 10:09:10;;;;;;;10.57;9.47;;;8.30;94.80;;;;;;947365;149;27450;-74
2022/01/11 10:11:36;;;;;;;11.23;10.03;;;8.30;94.60;;;;;;949988;149;27317;-74
2022/01/11 10:14:21;;;;;;;11.67;10.43;;;8.40;94.50;;;;;;965541;146;27300;-74
2022/01/11 10:16:48;;;;;;;10.30;9.33;;;8.50;94.50;;;;;;952475;146;27332;-74
2022/01/11 10:19:23;;;;;;;13.40;10.70;;;8.50;94.40;;;;;;960499;146;27417;-74
2022/01/11 10:21:50;;;;;;;13.83;10.13;;;8.60;94.40;;;;;;949466;146;27346;-74
2022/01/11 10:24:23;;;;;;;11.27;9.93;;;8.70;94.40;;;;;;953974;146;27361;-74
2022/01/11 10:26:49;;;;;;;11.77;9.73;;;8.70;94.40;;;;;;951518;149;27430;-74
2022/01/11 10:29:36;;;;;;;11.20;10.00;;;8.80;94.30;;;;;;966273;146;27283;-74
2022/01/11 10:32:09;;;;;;;13.47;10.03;;;8.90;94.10;;;;;;960845;146;27300;-74
2022/01/11 10:34:36;;;;;;;11.23;9.80;;;9.00;93.90;;;;;;938466;149;27338;-74
2022/01/11 10:37:03;;;;;;;13.37;9.90;;;9.00;93.60;;;;;;957632;146;27356;-74
2022/01/11 10:39:29;;;;;;;11.47;10.27;;;9.10;93.60;;;;;;956815;149;27397;-74
2022/01/11 10:41:56;;;;;;;11.20;9.80;;;9.10;93.90;;;;;;953421;149;27372;-74
2022/01/11 10:44:51;;;;;;;14.10;11.83;;;9.20;93.60;;;;;;950910;149;27456;-74
2022/01/11 10:47:20;;;;;;;17.47;12.57;;;9.20;93.50;;;;;;936112;149;27420;-74
2022/01/11 10:49:46;;;;;;;13.30;11.60;;;9.30;93.40;;;;;;952412;149;27316;-74
2022/01/11 10:52:21;;;;;;;14.03;11.70;;;9.30;93.20;;;;;;956266;149;27342;-74
2022/01/11 10:54:48;;;;;;;13.47;11.53;;;9.30;93.10;;;;;;962384;149;27389;-74
2022/01/11 10:57:17;;;;;;;14.43;11.17;;;9.30;93.10;;;;;;947616;148;27418;-74
2022/01/11 10:59:44;;;;;;;12.70;10.77;;;9.40;93.10;;;;;;954948;149;27357;-74
2022/01/11 11:02:13;;;;;;;10.97;9.87;;;9.40;92.90;;;;;;947757;148;27339;-74
2022/01/11 11:04:40;;;;;;;10.03;9.00;;;9.50;92.80;;;;;;949141;149;27445;-74
2022/01/11 11:07:15;;;;;;;10.63;9.53;;;9.50;92.80;;;;;;948104;149;27334;-74
2022/01/11 11:09:47;;;;;;;10.60;9.60;;;9.50;92.70;;;;;;957266;149;27243;-75
2022/01/11 11:12:16;;;;;;;11.37;10.17;;;9.50;92.60;;;;;;951134;149;27345;-75
2022/01/11 11:14:55;;;;;;;10.83;9.30;;;9.60;92.60;;;;;;955056;149;27390;-75
2022/01/11 11:17:30;;;;;;;10.00;8.20;;;9.60;92.50;;;;;;950453;149;27291;-75
2022/01/11 11:20:06;;;;;;;11.07;8.43;;;9.70;92.50;;;;;;947557;149;27339;-75
2022/01/11 11:22:32;;;;;;;10.53;8.07;;;9.70;92.40;;;;;;953174;149;27344;-75
2022/01/11 11:24:59;;;;;;;8.43;7.57;;;9.70;92.30;;;;;;952140;149;27424;-75
2022/01/11 11:27:26;;;;;;;8.10;7.07;;;9.80;92.10;;;;;;962410;148;27314;-75
2022/01/11 11:29:52;;;;;;;8.47;7.57;;;9.80;92.00;;;;;;956794;149;27337;-75
2022/01/11 11:32:19;;;;;;;8.87;7.17;;;9.80;91.90;;;;;;951956;149;27396;-75
2022/01/11 11:34:49;;;;;;;9.87;7.73;;;9.80;91.70;;;;;;953787;149;27291;-75
2022/01/11 11:37:14;;;;;;;8.53;7.10;;;9.90;92.00;;;;;;954777;148;27385;-75
2022/01/11 11:39:39;;;;;;;8.60;7.70;;;9.90;91.50;;;;;;955239;149;27325;-75
2022/01/11 11:42:05;;;;;;;9.37;7.53;;;9.90;91.30;;;;;;953084;149;27405;-75
2022/01/11 11:44:34;;;;;;;8.03;7.23;;;9.90;91.10;;;;;;957878;149;27372;-75
2022/01/11 11:47:01;;;;;;;9.30;7.97;;;9.90;91.10;;;;;;955080;148;27413;-75
2022/01/11 11:49:51;;;;;;;9.00;7.97;;;9.90;91.20;;;;;;957709;149;27330;-75
2022/01/11 11:52:39;;;;;;;10.60;7.97;;;9.90;91.20;;;;;;960100;149;27393;-75
2022/01/11 11:55:12;;;;;;;9.97;8.97;;;9.80;91.20;;;;;;953291;149;27351;-75
2022/01/11 11:57:40;;;;;;;10.93;8.50;;;9.80;91.30;;;;;;956282;149;27424;-74
2022/01/11 12:00:29;;;;;;;8.80;7.83;;;9.80;91.40;;;;;;953596;149;27328;-75
2022/01/11 12:02:59;;;;;;;9.17;8.27;;;9.90;91.40;;;;;;960055;149;27308;-75
2022/01/11 12:05:31;;;;;;;9.37;7.97;;;9.90;91.40;;;;;;957528;149;27413;-75
2022/01/11 12:07:58;;;;;;;10.10;7.97;;;9.90;91.30;;;;;;958659;149;27438;-75
2022/01/11 12:10:29;;;;;;;9.63;8.40;;;9.90;91.40;;;;;;955947;149;27332;-75
2022/01/11 12:12:55;;;;;;;11.83;8.83;;;9.90;91.50;;;;;;949606;149;27650;-75
2022/01/11 12:15:33;;;;;;;8.97;8.07;;;10.00;91.60;;;;;;956896;149;27360;-75
2022/01/11 12:17:59;;;;;;;11.73;9.33;;;10.00;91.50;;;;;;954028;149;27339;-75
2022/01/11 12:20:44;;;;;;;10.83;9.03;;;10.10;91.40;;;;;;952741;149;27326;-75
2022/01/11 12:23:11;;;;;;;11.23;9.20;;;10.10;91.30;;;;;;953357;149;27346;-75
2022/01/11 12:25:43;;;;;;;9.47;8.47;;;10.20;91.30;;;;;;952863;149;27760;-75
2022/01/11 12:28:21;;;;;;;10.57;9.17;;;10.20;91.30;;;;;;957186;149;27413;-75
2022/01/11 12:30:48;;;;;;;10.60;9.13;;;10.30;91.20;;;;;;950251;149;27338;-75
2022/01/11 12:33:21;;;;;;;11.53;10.17;;;10.30;91.10;;;;;;955177;149;27371;-75
2022/01/11 12:35:59;;;;;;;13.10;10.13;;;10.30;91.10;;;;;;954350;149;27308;-75
2022/01/11 12:38:25;;;;;;;12.93;9.90;;;10.40;90.90;;;;;;957018;146;27288;-75
2022/01/11 12:40:52;;;;;;;11.23;9.63;;;10.40;90.80;;;;;;953591;146;27422;-75
2022/01/11 12:43:36;;;;;;;9.83;8.83;;;10.50;90.70;;;;;;950309;146;27338;-75
2022/01/11 12:46:01;;;;;;;9.93;8.93;;;10.50;90.60;;;;;;947832;146;27367;-75
2022/01/11 12:48:51;;;;;;;9.77;8.63;;;10.50;90.40;;;;;;963316;146;27383;-75
2022/01/11 12:51:21;;;;;;;9.67;8.77;;;10.60;90.30;;;;;;970997;146;27306;-74
2022/01/11 12:53:46;;;;;;;10.73;8.73;;;10.50;90.20;;;;;;951930;146;27365;-75
2022/01/11 12:56:13;;;;;;;12.10;8.73;;;10.60;90.10;;;;;;952673;146;27957;-74
2022/01/11 12:58:40;;;;;;;10.80;9.50;;;10.60;90.10;;;;;;962667;146;27404;-74